Norfolk, VA

7:50 AM EDT on August 21, 2014 (GMT -0400)
Norview 23509 WB4KKT | Change Station
CLOSE
Current Station
Personal Weather Station
Location: NORFOLK, VA
Elevation: 11 ft
Nearby Weather Stations

Elev 11 ft 36.89 °N, 76.26 °W | Updated 6 minutes ago

Mostly Cloudy
Mostly Cloudy
74.7 °F
Feels Like 72 °F
N
0.0
Wind Variable Wind from SSE
Gusts 0.0 mph

Today
High -- | Low -- °F
--% Chance of Precip.
Yesterday
High -- | Low -- °F
Precip. -- in
6:26 AM 7:48 PM
Waning Crescent, 15% visible
Pressure 30.02 in
Visibility 10.0 miles
Clouds Few 800 ft
Scattered Clouds 3400 ft
Mostly Cloudy 4500 ft
Heat Index 72 °F
Dew Point 74 °F
Humidity 96%
Rainfall 0.00 in
Snow Depth Not available.
UV 0 out of 12
Pollen 8.60 out of 12
Ozone Good
PM2.5 Good
Flu Activity Not available.
SPECI KORF 211123Z AUTO 21004KT 10SM FEW008 SCT034 BKN045 24/22 A3002 RMK AO2 T02440222 TSNO

More Conditions Fewer Conditions

Pressure 30.02 in
Visibility 10.0 miles
Clouds Few 800 ft
Scattered Clouds 3400 ft
Mostly Cloudy 4500 ft
Heat Index 72 °F
Dew Point 74 °F
Humidity 96%
Rainfall 0.00 in
Snow Depth Not available.
UV 0 out of 12
Pollen 8.60 out of 12
Ozone Good
PM2.5 Good
Flu Activity Not available.
SPECI KORF 211123Z AUTO 21004KT 10SM FEW008 SCT034 BKN045 24/22 A3002 RMK AO2 T02440222 TSNO

More Conditions Fewer Conditions

10-Day Weather Forecast

Almanac

Astronomy

Aug. 21, 2014 Rise Set
Actual Time 6:26 AM EDT 7:48 PM EDT
Civil Twilight 5:59 AM EDT 8:15 PM EDT
Nautical Twilight 5:27 AM EDT 8:48 PM EDT
Astronomical Twilight 4:53 AM EDT 9:22 PM EDT
Moon 2:57 AM EDT 5:13 PM EDT
Length of Visible Light 14h 16m
Length of Day
13h 21m
Tomorrow will be 2m 9s shorter.
Waning Crescent, 15% of the Moon is Illuminated
Today
Waning Crescent
Aug 25
New
Sep 2
First Quarter
Sep 8
Full
Sep 15
Last Quarter

Today's Extremes

State Highs State Lows

Community

WunderPhotos

Upload Photos

1,745,864 photos uploaded!

Nearby

Air Quality

  Air Quality AQ Index Pollutant
Yesterday Good
OZONE
Yesterday Good
PM2.5
Current Good
PM2.5
Current Good
OZONE
Thursday Moderate
OZONE
Thursday Good
PM2.5

Snow Depth

Station Depth Elevation
No new snow has been reported.

Earthquake Activity

City Distance Mag. Time & Date
No recent earthquake activity has been reported nearby.
Minimum magnitude displayed is 2.5.

Coastal Water Temperatures

Place Temperature
Sewells Point, VA 79.0 °F
Chesapeake Bay Bridge Tunnel, VA 78.1 °F
Kiptopeke, VA 81.0 °F
Yorktown, VA 80.1 °F

Nearby Weather Stations